createdAt,value
2022-09-23T00:01:28.776Z,5.72
2022-09-23T00:03:58.859Z,5.17
2022-09-23T00:06:30.299Z,7.00
2022-09-23T00:08:58.406Z,8.52
2022-09-23T00:11:28.287Z,4.28
2022-09-23T00:13:59.042Z,5.00
2022-09-23T00:16:34.459Z,4.83
2022-09-23T00:19:03.843Z,6.68
2022-09-23T00:21:31.820Z,6.43
2022-09-23T00:23:59.907Z,6.15
2022-09-23T00:26:28.280Z,7.43
2022-09-23T00:28:56.453Z,4.93
2022-09-23T00:31:27.649Z,4.88
2022-09-23T00:34:00.409Z,6.07
2022-09-23T00:36:30.195Z,6.28
2022-09-23T00:38:57.994Z,5.10
2022-09-23T00:41:26.375Z,7.07
2022-09-23T00:43:58.030Z,5.93
2022-09-23T00:46:35.849Z,5.63
2022-09-23T00:49:40.882Z,5.70
2022-09-23T00:52:17.782Z,5.35
2022-09-23T00:54:48.052Z,6.23
2022-09-23T00:57:17.798Z,7.65
2022-09-23T00:59:45.453Z,7.80
2022-09-23T01:02:14.660Z,8.57
2022-09-23T01:04:43.154Z,7.18
2022-09-23T01:07:10.877Z,6.77
2022-09-23T01:09:38.858Z,6.20
2022-09-23T01:12:24.973Z,6.63
2022-09-23T01:15:48.219Z,6.60
2022-09-23T01:18:37.632Z,6.57
2022-09-23T01:21:21.164Z,5.80
2022-09-23T01:24:25.729Z,5.47
2022-09-23T01:27:06.012Z,5.60
2022-09-23T01:29:36.688Z,7.55
2022-09-23T01:32:22.541Z,7.90
2022-09-23T01:35:01.141Z,5.17
2022-09-23T01:37:45.339Z,8.23
2022-09-23T01:40:34.391Z,5.78
2022-09-23T01:43:11.086Z,7.32
2022-09-23T01:45:47.726Z,6.10
2022-09-23T01:48:26.865Z,6.87
2022-09-23T01:51:05.122Z,5.75
2022-09-23T01:53:57.101Z,5.55
2022-09-23T01:56:31.082Z,5.75
2022-09-23T01:59:23.350Z,9.68
2022-09-23T02:02:04.487Z,5.63
2022-09-23T02:04:47.550Z,5.80
2022-09-23T02:07:36.478Z,6.18
2022-09-23T02:10:20.176Z,8.30
2022-09-23T02:12:52.438Z,4.75
2022-09-23T02:15:25.475Z,6.40
2022-09-23T02:18:03.929Z,6.13
2022-09-23T02:20:37.790Z,6.15
2022-09-23T02:23:17.300Z,6.93
2022-09-23T02:26:23.255Z,5.68
2022-09-23T02:29:05.059Z,7.03
2022-09-23T02:32:00.295Z,6.65
2022-09-23T02:34:39.738Z,5.53
2022-09-23T02:37:25.926Z,5.05
2022-09-23T02:40:08.499Z,5.57
2022-09-23T02:43:05.939Z,7.77
2022-09-23T02:45:34.640Z,6.25
2022-09-23T02:48:11.002Z,6.63
2022-09-23T02:50:39.366Z,8.18
2022-09-23T02:53:08.985Z,7.45
2022-09-23T02:55:37.117Z,5.43
2022-09-23T02:58:05.723Z,6.65
2022-09-23T03:01:06.498Z,7.38
2022-09-23T03:03:43.736Z,8.45
2022-09-23T03:06:32.618Z,5.10
2022-09-23T03:09:08.961Z,6.10
2022-09-23T03:11:40.617Z,7.63
2022-09-23T03:14:17.223Z,7.70
2022-09-23T03:16:53.387Z,8.35
2022-09-23T03:19:41.710Z,7.20
2022-09-23T03:22:32.654Z,9.87
2022-09-23T03:25:07.402Z,8.38
2022-09-23T03:27:37.612Z,15.20
2022-09-23T03:30:07.273Z,9.95
2022-09-23T03:32:36.463Z,10.18
2022-09-23T03:35:06.434Z,8.90
2022-09-23T03:37:48.073Z,12.55
2022-09-23T03:40:18.472Z,15.68
2022-09-23T03:42:49.228Z,10.60
2022-09-23T03:45:26.480Z,10.93
2022-09-23T03:47:54.387Z,10.20
2022-09-23T03:50:22.589Z,14.88
2022-09-23T03:52:51.185Z,11.75
2022-09-23T03:55:20.643Z,16.30
2022-09-23T03:57:48.937Z,10.65
2022-09-23T04:00:16.804Z,10.47
2022-09-23T04:02:45.270Z,10.77
2022-09-23T04:05:14.115Z,16.30
2022-09-23T04:07:42.799Z,11.15
2022-09-23T04:10:11.243Z,11.68
2022-09-23T04:12:39.523Z,11.53
2022-09-23T04:15:07.843Z,11.55
2022-09-23T04:17:35.643Z,20.92
2022-09-23T04:20:03.987Z,10.95
2022-09-23T04:22:33.838Z,18.08
2022-09-23T04:25:02.233Z,11.70
2022-09-23T04:27:34.222Z,11.07
2022-09-23T04:30:05.530Z,12.75
2022-09-23T04:32:33.954Z,11.82
2022-09-23T04:35:01.671Z,10.13
2022-09-23T04:37:29.801Z,11.33
2022-09-23T04:39:57.897Z,14.43
2022-09-23T04:42:29.812Z,13.32
2022-09-23T04:44:58.168Z,12.02
2022-09-23T04:47:26.455Z,10.07
2022-09-23T04:49:59.009Z,13.57
2022-09-23T04:52:27.782Z,10.88
2022-09-23T04:56:11.310Z,9.13
2022-09-23T04:58:40.210Z,10.63
2022-09-23T05:01:13.878Z,10.30
2022-09-23T05:03:43.301Z,10.07
2022-09-23T05:06:15.713Z,9.85
2022-09-23T05:08:54.887Z,9.20
2022-09-23T05:11:24.123Z,10.00
2022-09-23T05:13:54.519Z,13.63
2022-09-23T05:16:24.386Z,14.03
2022-09-23T05:18:53.368Z,10.93
2022-09-23T05:21:23.748Z,13.68
2022-09-23T05:23:55.501Z,13.00
2022-09-23T05:26:26.869Z,11.25
2022-09-23T05:28:55.176Z,10.87
2022-09-23T05:31:25.865Z,10.30
2022-09-23T05:34:00.588Z,13.15
2022-09-23T05:36:33.209Z,10.02
2022-09-23T05:39:04.445Z,10.40
2022-09-23T05:41:33.402Z,15.90
2022-09-23T05:44:01.834Z,16.05
2022-09-23T05:46:31.381Z,14.52
2022-09-23T05:49:03.038Z,17.40
2022-09-23T05:51:33.560Z,21.88
2022-09-23T05:54:06.086Z,13.27
2022-09-23T05:56:35.512Z,12.45
2022-09-23T05:59:04.758Z,9.10
2022-09-23T06:01:35.720Z,12.18
2022-09-23T06:04:06.422Z,11.05
2022-09-23T06:06:39.588Z,11.70
2022-09-23T06:09:11.621Z,10.43
2022-09-23T06:11:40.352Z,11.90
2022-09-23T06:14:12.106Z,9.45
2022-09-23T06:16:41.659Z,10.80
2022-09-23T06:19:10.179Z,10.20
2022-09-23T06:21:40.659Z,21.52
2022-09-23T06:24:10.529Z,12.05
2022-09-23T06:26:39.356Z,11.65
2022-09-23T06:29:15.153Z,14.48
2022-09-23T06:31:44.231Z,10.80
2022-09-23T06:34:14.464Z,10.13
2022-09-23T06:36:46.231Z,10.75
2022-09-23T06:39:15.966Z,7.03
2022-09-23T06:41:45.637Z,21.88
2022-09-23T06:44:14.800Z,14.77
2022-09-23T06:46:42.725Z,9.68
2022-09-23T06:49:13.579Z,8.70
2022-09-23T06:51:41.849Z,8.90
2022-09-23T06:54:11.500Z,11.82
2022-09-23T06:56:41.007Z,7.87
2022-09-23T06:59:13.301Z,8.85
2022-09-23T07:01:43.485Z,11.45
2022-09-23T07:04:16.927Z,6.72
2022-09-23T07:06:52.666Z,6.53
2022-09-23T07:09:21.432Z,8.30
2022-09-23T07:11:49.630Z,8.55
2022-09-23T07:14:17.977Z,7.47
2022-09-23T07:16:48.689Z,16.98
2022-09-23T07:19:17.573Z,8.77
2022-09-23T07:21:45.507Z,22.73
2022-09-23T07:24:39.690Z,11.88
2022-09-23T07:27:08.865Z,13.68
2022-09-23T07:29:47.208Z,8.13
2022-09-23T07:32:18.135Z,9.52
2022-09-23T07:34:47.573Z,8.93
2022-09-23T07:37:16.877Z,8.48
2022-09-23T07:39:45.805Z,8.02
2022-09-23T07:42:14.437Z,7.63
2022-09-23T07:44:47.409Z,7.63
2022-09-23T07:47:18.568Z,9.73
2022-09-23T07:49:47.179Z,5.68
2022-09-23T07:52:16.031Z,8.43
2022-09-23T07:54:48.615Z,7.55
2022-09-23T07:57:16.871Z,8.40
2022-09-23T07:59:44.992Z,10.23
2022-09-23T08:02:14.992Z,13.00
2022-09-23T08:04:44.290Z,7.63
2022-09-23T08:07:14.236Z,7.15
2022-09-23T08:09:44.097Z,8.77
2022-09-23T08:12:17.845Z,7.67
2022-09-23T08:14:45.851Z,7.25
2022-09-23T08:17:14.533Z,5.85
2022-09-23T08:19:46.865Z,6.75
2022-09-23T08:22:16.482Z,5.05
2022-09-23T08:24:44.352Z,8.43
2022-09-23T08:27:13.028Z,6.18
2022-09-23T08:29:41.404Z,10.40
2022-09-23T08:32:09.457Z,8.00
2022-09-23T08:34:37.472Z,8.98
2022-09-23T08:37:11.383Z,7.47
2022-09-23T08:39:39.479Z,7.50
2022-09-23T08:42:33.986Z,8.95
2022-09-23T08:45:06.013Z,6.97
2022-09-23T08:47:55.649Z,6.13
2022-09-23T08:50:32.158Z,5.43
2022-09-23T08:53:15.376Z,5.55
2022-09-23T08:55:48.221Z,6.43
2022-09-23T08:58:44.243Z,6.40
2022-09-23T09:01:30.596Z,9.23
2022-09-23T09:04:00.430Z,5.83
2022-09-23T09:06:57.661Z,8.27
2022-09-23T09:09:50.683Z,5.97
2022-09-23T09:12:32.009Z,4.65
2022-09-23T09:15:13.499Z,5.55
2022-09-23T09:17:48.781Z,5.20
2022-09-23T09:20:19.831Z,3.85
2022-09-23T09:26:42.153Z,3.42
2022-09-23T09:29:35.698Z,4.38
2022-09-23T09:32:19.319Z,4.30
2022-09-23T09:35:00.347Z,5.55
2022-09-23T09:37:47.263Z,5.82
2022-09-23T09:40:20.766Z,5.43
2022-09-23T09:42:50.335Z,5.97
2022-09-23T09:45:26.645Z,4.20
2022-09-23T09:48:17.759Z,3.92
2022-09-23T09:50:45.566Z,5.88
2022-09-23T09:53:22.096Z,4.10
2022-09-23T09:56:19.416Z,4.55
2022-09-23T09:58:55.215Z,4.60
2022-09-23T10:01:25.575Z,4.55
2022-09-23T10:04:03.853Z,3.45
2022-09-23T10:06:34.331Z,5.68
2022-09-23T10:09:02.462Z,3.90
2022-09-23T10:11:31.227Z,3.30
2022-09-23T10:14:06.491Z,4.00
2022-09-23T10:16:35.451Z,3.58
2022-09-23T10:19:11.596Z,3.42
2022-09-23T10:21:42.923Z,4.60
2022-09-23T10:24:26.223Z,4.87
2022-09-23T10:27:01.269Z,3.53
2022-09-23T10:29:33.626Z,2.83
2022-09-23T10:32:23.779Z,4.30
2022-09-23T10:35:12.303Z,3.90
2022-09-23T10:38:01.000Z,6.63
2022-09-23T10:40:59.574Z,3.00
2022-09-23T10:44:42.742Z,3.42
2022-09-23T10:47:16.877Z,2.50
2022-09-23T10:50:17.788Z,3.83
2022-09-23T10:52:58.850Z,2.70
2022-09-23T10:56:13.137Z,3.55
2022-09-23T10:59:04.213Z,2.40
2022-09-23T11:01:40.774Z,3.92
2022-09-23T11:04:40.357Z,3.40
2022-09-23T11:07:28.614Z,3.07
2022-09-23T11:10:49.379Z,2.78
2022-09-23T11:14:01.722Z,2.88
2022-09-23T11:17:02.867Z,3.80
2022-09-23T11:20:01.797Z,4.22
2022-09-23T11:23:01.805Z,2.43
2022-09-23T11:25:38.463Z,3.25
2022-09-23T11:28:41.731Z,2.97
2022-09-23T11:31:24.735Z,3.67
2022-09-23T11:34:26.697Z,3.83
2022-09-23T11:37:07.101Z,5.10
2022-09-23T11:39:42.032Z,10.77
2022-09-23T11:42:20.014Z,2.72
2022-09-23T11:45:40.754Z,4.18
2022-09-23T11:48:19.287Z,5.00
2022-09-23T11:51:29.522Z,3.43
2022-09-23T11:54:05.875Z,2.85
2022-09-23T11:56:46.788Z,2.75
2022-09-23T11:59:27.241Z,2.70
2022-09-23T12:02:20.038Z,12.70
2022-09-23T12:05:07.093Z,5.37
2022-09-23T12:08:00.295Z,3.10
2022-09-23T12:10:56.676Z,4.72
2022-09-23T12:13:57.101Z,2.95
2022-09-23T12:16:56.355Z,10.38
2022-09-23T12:20:05.880Z,10.47
2022-09-23T12:23:01.665Z,3.75
2022-09-23T12:25:52.491Z,7.63
2022-09-23T12:28:42.276Z,7.60
2022-09-23T12:31:15.945Z,7.75
2022-09-23T12:33:55.153Z,3.40
2022-09-23T12:36:30.957Z,7.25
2022-09-23T12:39:08.283Z,7.53
2022-09-23T12:41:43.208Z,7.07
2022-09-23T12:45:02.385Z,3.35
2022-09-23T12:47:37.858Z,4.77
2022-09-23T12:50:46.028Z,3.42
2022-09-23T12:53:36.234Z,7.03
2022-09-23T12:59:23.862Z,3.45
2022-09-23T13:01:52.560Z,4.43
2022-09-23T13:05:00.989Z,22.65
2022-09-23T13:07:34.327Z,13.10
2022-09-23T13:10:18.567Z,4.60
2022-09-23T13:12:47.762Z,5.47
2022-09-23T13:15:31.786Z,4.10
2022-09-23T13:18:48.193Z,4.43
2022-09-23T13:21:19.092Z,7.95
2022-09-23T13:24:19.214Z,3.60
2022-09-23T13:26:55.965Z,3.17
2022-09-23T13:29:34.951Z,2.60
2022-09-23T13:32:04.286Z,3.60
2022-09-23T13:34:38.911Z,39.25
2022-09-23T13:37:25.042Z,35.08
2022-09-23T13:39:53.822Z,11.40
2022-09-23T13:42:31.315Z,8.00
2022-09-23T13:45:00.791Z,7.55
2022-09-23T13:47:32.507Z,9.95
2022-09-23T13:50:02.197Z,7.38
2022-09-23T13:52:33.253Z,5.82
2022-09-23T13:55:02.878Z,8.30
2022-09-23T13:57:34.374Z,4.28
2022-09-23T14:00:24.314Z,3.38
2022-09-23T14:02:53.863Z,3.45
2022-09-23T14:05:25.713Z,5.25
2022-09-23T14:07:54.996Z,2.77
2022-09-23T14:10:25.374Z,2.67
2022-09-23T14:12:54.482Z,3.17
2022-09-23T14:15:23.069Z,4.32
2022-09-23T14:18:03.757Z,3.35
2022-09-23T14:20:31.588Z,2.50
2022-09-23T14:23:14.391Z,2.17
2022-09-23T14:25:47.385Z,3.22
2022-09-23T14:28:24.079Z,4.88
2022-09-23T14:30:54.293Z,2.40
2022-09-23T14:33:31.077Z,9.93
2022-09-23T14:36:31.997Z,6.07
2022-09-23T14:39:06.638Z,6.28
2022-09-23T14:41:40.422Z,6.40
2022-09-23T14:44:21.292Z,5.63
2022-09-23T14:46:58.992Z,6.87
2022-09-23T14:49:28.516Z,4.20
2022-09-23T14:52:07.499Z,3.42
2022-09-23T14:54:41.180Z,2.70
2022-09-23T14:57:24.584Z,3.58
2022-09-23T15:00:16.965Z,3.80
2022-09-23T15:02:59.034Z,3.85
2022-09-23T15:05:44.110Z,2.83
2022-09-23T15:08:19.571Z,7.25
2022-09-23T15:10:49.275Z,3.83
2022-09-23T15:13:30.661Z,4.13
2022-09-23T15:16:04.746Z,9.07
2022-09-23T15:18:36.180Z,10.90
2022-09-23T15:21:17.133Z,10.05
2022-09-23T15:23:50.743Z,11.77
2022-09-23T15:26:21.084Z,17.83
2022-09-23T15:28:54.574Z,10.13
2022-09-23T15:31:26.984Z,8.32
2022-09-23T15:33:58.353Z,7.38
2022-09-23T15:36:46.537Z,9.95
2022-09-23T15:39:16.675Z,5.17
2022-09-23T15:41:47.490Z,17.85
2022-09-23T15:44:22.181Z,8.82
2022-09-23T15:47:03.442Z,7.28
2022-09-23T15:49:56.715Z,17.10
2022-09-23T15:52:28.783Z,6.03
2022-09-23T15:54:58.990Z,5.25
2022-09-23T15:57:28.623Z,6.45
2022-09-23T15:59:58.868Z,3.40
2022-09-23T16:02:27.675Z,15.10
2022-09-23T16:05:03.222Z,6.83
2022-09-23T16:07:31.066Z,3.97
2022-09-23T16:09:59.228Z,3.38
2022-09-23T16:12:28.358Z,3.92
2022-09-23T16:14:56.940Z,4.32
2022-09-23T16:17:29.585Z,4.97
2022-09-23T16:19:57.731Z,3.78
2022-09-23T16:22:25.786Z,5.35
2022-09-23T16:24:53.971Z,6.15
2022-09-23T16:27:23.079Z,6.10
2022-09-23T16:29:51.403Z,8.87
2022-09-23T16:32:22.223Z,11.32
2022-09-23T16:34:51.663Z,14.75
2022-09-23T16:37:21.722Z,8.05
2022-09-23T16:39:50.243Z,10.10
2022-09-23T16:42:18.360Z,12.83
2022-09-23T16:44:46.495Z,35.63
2022-09-23T16:47:16.557Z,33.38
2022-09-23T16:49:44.850Z,32.78
2022-09-23T16:52:15.406Z,11.40
2022-09-23T16:54:44.116Z,9.87
2022-09-23T16:57:13.582Z,11.35
2022-09-23T17:00:00.275Z,8.10
2022-09-23T17:02:47.620Z,8.88
2022-09-23T17:05:19.051Z,9.65
2022-09-23T17:07:49.272Z,4.33
2022-09-23T17:10:20.593Z,9.63
2022-09-23T17:12:48.719Z,6.15
2022-09-23T17:15:28.965Z,4.80
2022-09-23T17:17:59.891Z,5.78
2022-09-23T17:20:29.675Z,5.20
2022-09-23T17:22:59.936Z,6.82
2022-09-23T17:25:28.727Z,4.93
2022-09-23T17:27:58.161Z,3.35
2022-09-23T17:30:27.501Z,6.07
2022-09-23T17:32:56.061Z,3.80
2022-09-23T17:35:24.155Z,3.88
2022-09-23T17:37:54.683Z,3.58
2022-09-23T17:40:24.089Z,4.45
2022-09-23T17:42:53.549Z,4.82
2022-09-23T17:45:21.572Z,7.60
2022-09-23T17:47:55.138Z,12.35
2022-09-23T17:50:23.017Z,7.15
2022-09-23T17:52:50.897Z,6.00
2022-09-23T17:55:19.574Z,7.80
2022-09-23T17:57:51.435Z,6.50
2022-09-23T18:00:19.672Z,6.10
2022-09-23T18:02:51.688Z,9.00
2022-09-23T18:05:20.488Z,8.82
2022-09-23T18:07:48.235Z,9.32
2022-09-23T18:10:16.217Z,8.10
2022-09-23T18:12:44.291Z,7.53
2022-09-23T18:15:13.562Z,7.28
2022-09-23T18:17:42.982Z,7.50
2022-09-23T18:20:11.797Z,5.15
2022-09-23T18:22:39.721Z,5.03
2022-09-23T18:25:28.544Z,5.30
2022-09-23T18:27:56.230Z,5.45
2022-09-23T18:30:26.064Z,8.13
2022-09-23T18:32:54.204Z,5.78
2022-09-23T18:35:22.582Z,7.57
2022-09-23T18:37:50.751Z,7.95
2022-09-23T18:40:19.619Z,5.97
2022-09-23T18:42:48.824Z,4.88
2022-09-23T18:45:16.888Z,6.55
2022-09-23T18:48:04.634Z,5.77
2022-09-23T18:50:41.320Z,5.28
2022-09-23T18:53:10.107Z,4.30
2022-09-23T18:55:42.017Z,4.75
2022-09-23T18:58:10.986Z,4.25
2022-09-23T19:00:40.054Z,5.00
2022-09-23T19:03:08.040Z,5.70
2022-09-23T19:05:36.929Z,4.20
2022-09-23T19:08:05.031Z,9.70
2022-09-23T19:10:32.685Z,7.25
2022-09-23T19:13:01.079Z,8.50
2022-09-23T19:15:29.025Z,8.05
2022-09-23T19:17:56.856Z,6.18
2022-09-23T19:20:25.312Z,6.18
2022-09-23T19:22:53.537Z,9.43
2022-09-23T19:25:21.148Z,11.37
2022-09-23T19:27:50.555Z,23.13
2022-09-23T19:30:19.462Z,9.88
2022-09-23T19:32:47.225Z,9.05
2022-09-23T19:35:16.348Z,10.07
2022-09-23T19:37:49.567Z,10.77
2022-09-23T19:40:17.689Z,11.02
2022-09-23T19:42:45.687Z,12.57
2022-09-23T19:45:13.453Z,11.05
2022-09-23T19:47:41.271Z,7.38
2022-09-23T19:50:09.871Z,7.60
2022-09-23T19:52:38.064Z,4.72
2022-09-23T19:55:06.955Z,5.40
2022-09-23T19:57:35.010Z,5.82
2022-09-23T20:00:02.760Z,8.20
2022-09-23T20:02:40.431Z,5.07
2022-09-23T20:05:11.812Z,6.45
2022-09-23T20:07:42.110Z,4.80
2022-09-23T20:10:11.616Z,5.60
2022-09-23T20:12:42.623Z,6.93
2022-09-23T20:15:12.202Z,5.97
2022-09-23T20:17:43.060Z,9.00
2022-09-23T20:20:13.223Z,5.20
2022-09-23T20:22:41.250Z,6.20
2022-09-23T20:25:13.874Z,5.30
2022-09-23T20:27:42.104Z,5.17
2022-09-23T20:30:10.273Z,6.80
2022-09-23T20:32:40.769Z,18.10
2022-09-23T20:35:12.162Z,15.65
2022-09-23T20:37:39.958Z,6.75
2022-09-23T20:40:09.395Z,5.93
2022-09-23T20:42:38.093Z,4.97
2022-09-23T20:45:07.523Z,5.28
2022-09-23T20:47:35.271Z,5.15
2022-09-23T20:50:03.821Z,5.72
2022-09-23T20:52:33.081Z,7.10
2022-09-23T20:55:02.508Z,5.70
2022-09-23T20:57:31.760Z,4.90
2022-09-23T20:59:59.439Z,4.95
2022-09-23T21:02:28.112Z,5.72
2022-09-23T21:04:56.320Z,5.73
2022-09-23T21:07:24.249Z,4.82
2022-09-23T21:09:52.020Z,7.93
2022-09-23T21:12:20.714Z,4.45
2022-09-23T21:14:49.251Z,5.43
2022-09-23T21:17:17.673Z,4.83
2022-09-23T21:19:45.568Z,5.75
2022-09-23T21:22:13.352Z,4.82
2022-09-23T21:25:16.132Z,4.38
2022-09-23T21:27:31.886Z,6.07
2022-09-23T21:30:01.454Z,4.70
2022-09-23T21:32:29.327Z,7.43
2022-09-23T21:34:58.839Z,5.30
2022-09-23T21:37:28.327Z,7.32
2022-09-23T21:40:16.449Z,6.82
2022-09-23T21:42:50.833Z,6.10
2022-09-23T21:45:19.711Z,11.48
2022-09-23T21:47:47.774Z,6.80
2022-09-23T21:50:43.758Z,7.00
2022-09-23T21:53:20.527Z,5.38
2022-09-23T21:55:49.195Z,5.90
2022-09-23T21:58:17.141Z,5.32
2022-09-23T22:00:46.396Z,6.55
2022-09-23T22:03:14.183Z,5.45
2022-09-23T22:05:44.305Z,6.97
2022-09-23T22:08:12.589Z,5.10
2022-09-23T22:10:40.266Z,8.07
2022-09-23T22:13:12.667Z,5.65
2022-09-23T22:15:42.488Z,6.20
2022-09-23T22:18:10.589Z,7.25
2022-09-23T22:20:38.342Z,5.87
2022-09-23T22:23:06.419Z,5.50
2022-09-23T22:25:34.156Z,8.73
2022-09-23T22:28:20.837Z,8.43
2022-09-23T22:31:07.493Z,5.15
2022-09-23T22:33:35.367Z,6.03
2022-09-23T22:36:04.218Z,5.25
2022-09-23T22:38:33.111Z,8.15
2022-09-23T22:41:01.012Z,6.70
2022-09-23T22:43:30.901Z,6.10
2022-09-23T22:46:00.306Z,6.60
2022-09-23T22:48:27.953Z,7.28
2022-09-23T22:50:56.408Z,8.50
2022-09-23T22:53:24.427Z,9.23
2022-09-23T22:56:01.419Z,9.70
2022-09-23T22:58:32.690Z,9.50
2022-09-23T23:01:03.733Z,6.70
2022-09-23T23:03:34.824Z,8.70
2022-09-23T23:06:03.338Z,7.50
2022-09-23T23:08:31.779Z,8.80
2022-09-23T23:11:05.709Z,9.97
2022-09-23T23:13:33.684Z,6.28
2022-09-23T23:16:06.762Z,6.68
2022-09-23T23:18:36.152Z,6.55
2022-09-23T23:21:13.583Z,7.55
2022-09-23T23:23:43.671Z,9.07
2022-09-23T23:26:15.061Z,6.97
2022-09-23T23:28:44.815Z,9.00
2022-09-23T23:31:16.618Z,7.45
2022-09-23T23:33:45.031Z,7.95
2022-09-23T23:36:15.270Z,7.73
2022-09-23T23:38:45.132Z,10.13
2022-09-23T23:41:15.612Z,10.13
2022-09-23T23:43:46.404Z,8.90
2022-09-23T23:46:15.475Z,8.38
2022-09-23T23:48:48.424Z,7.43
2022-09-23T23:51:16.673Z,7.43
2022-09-23T23:53:44.382Z,12.43
2022-09-23T23:56:17.868Z,7.90
2022-09-23T23:58:46.300Z,7.43
